sensor_id;sensor_type;location;lat;lon;timestamp;temperature;humidity
35085;SHT85;21267;51.032;6.998;2023-04-03T00:01:38;1.79;85.45
35085;SHT85;21267;51.032;6.998;2023-04-03T00:04:05;1.78;85.56
35085;SHT85;21267;51.032;6.998;2023-04-03T00:06:32;1.89;85.14
35085;SHT85;21267;51.032;6.998;2023-04-03T00:08:59;1.86;85.54
35085;SHT85;21267;51.032;6.998;2023-04-03T00:11:26;1.87;85.13
35085;SHT85;21267;51.032;6.998;2023-04-03T00:13:53;1.82;85.24
35085;SHT85;21267;51.032;6.998;2023-04-03T00:16:19;1.82;85.35
35085;SHT85;21267;51.032;6.998;2023-04-03T00:18:46;1.80;85.28
35085;SHT85;21267;51.032;6.998;2023-04-03T00:21:13;1.79;85.25
35085;SHT85;21267;51.032;6.998;2023-04-03T00:23:41;1.76;85.55
35085;SHT85;21267;51.032;6.998;2023-04-03T00:26:07;1.75;85.51
35085;SHT85;21267;51.032;6.998;2023-04-03T00:28:34;1.62;85.97
35085;SHT85;21267;51.032;6.998;2023-04-03T00:31:01;1.55;86.15
35085;SHT85;21267;51.032;6.998;2023-04-03T00:33:28;1.49;86.30
35085;SHT85;21267;51.032;6.998;2023-04-03T00:35:54;1.45;86.67
35085;SHT85;21267;51.032;6.998;2023-04-03T00:38:21;1.47;86.54
35085;SHT85;21267;51.032;6.998;2023-04-03T00:40:48;1.48;86.75
35085;SHT85;21267;51.032;6.998;2023-04-03T00:43:18;1.41;86.76
35085;SHT85;21267;51.032;6.998;2023-04-03T00:45:48;1.37;86.81
35085;SHT85;21267;51.032;6.998;2023-04-03T00:48:36;1.44;86.78
35085;SHT85;21267;51.032;6.998;2023-04-03T00:51:06;1.34;87.08
35085;SHT85;21267;51.032;6.998;2023-04-03T00:53:40;1.30;87.10
35085;SHT85;21267;51.032;6.998;2023-04-03T00:56:11;1.38;86.84
35085;SHT85;21267;51.032;6.998;2023-04-03T00:58:57;1.26;86.91
35085;SHT85;21267;51.032;6.998;2023-04-03T01:01:28;1.30;86.88
35085;SHT85;21267;51.032;6.998;2023-04-03T01:03:55;1.27;86.92
35085;SHT85;21267;51.032;6.998;2023-04-03T01:06:28;1.30;87.01
35085;SHT85;21267;51.032;6.998;2023-04-03T01:08:59;1.23;87.09
35085;SHT85;21267;51.032;6.998;2023-04-03T01:11:26;1.24;87.09
35085;SHT85;21267;51.032;6.998;2023-04-03T01:13:53;1.18;87.38
35085;SHT85;21267;51.032;6.998;2023-04-03T01:16:20;1.17;87.46
35085;SHT85;21267;51.032;6.998;2023-04-03T01:18:47;1.11;87.60
35085;SHT85;21267;51.032;6.998;2023-04-03T01:26:45;1.05;87.86
35085;SHT85;21267;51.032;6.998;2023-04-03T01:29:12;1.08;87.54
35085;SHT85;21267;51.032;6.998;2023-04-03T01:31:54;1.00;87.83
35085;SHT85;21267;51.032;6.998;2023-04-03T01:34:22;1.00;87.89
35085;SHT85;21267;51.032;6.998;2023-04-03T01:36:49;1.07;87.98
35085;SHT85;21267;51.032;6.998;2023-04-03T01:39:17;1.03;87.76
35085;SHT85;21267;51.032;6.998;2023-04-03T01:41:44;1.18;87.58
35085;SHT85;21267;51.032;6.998;2023-04-03T01:44:11;1.08;87.58
35085;SHT85;21267;51.032;6.998;2023-04-03T01:46:38;1.08;87.64
35085;SHT85;21267;51.032;6.998;2023-04-03T01:49:05;1.13;87.51
35085;SHT85;21267;51.032;6.998;2023-04-03T01:51:32;1.11;87.18
35085;SHT85;21267;51.032;6.998;2023-04-03T01:53:59;1.08;87.23
35085;SHT85;21267;51.032;6.998;2023-04-03T01:56:26;1.13;86.91
35085;SHT85;21267;51.032;6.998;2023-04-03T01:58:53;1.16;86.73
35085;SHT85;21267;51.032;6.998;2023-04-03T02:01:19;1.16;86.79
35085;SHT85;21267;51.032;6.998;2023-04-03T02:03:47;1.17;86.75
35085;SHT85;21267;51.032;6.998;2023-04-03T02:06:14;1.24;86.72
35085;SHT85;21267;51.032;6.998;2023-04-03T02:08:41;1.18;86.74
35085;SHT85;21267;51.032;6.998;2023-04-03T02:11:08;1.17;86.76
35085;SHT85;21267;51.032;6.998;2023-04-03T02:13:34;1.28;86.75
35085;SHT85;21267;51.032;6.998;2023-04-03T02:16:09;1.20;86.64
35085;SHT85;21267;51.032;6.998;2023-04-03T02:18:39;1.20;86.58
35085;SHT85;21267;51.032;6.998;2023-04-03T02:21:06;1.26;86.69
35085;SHT85;21267;51.032;6.998;2023-04-03T02:23:32;1.28;86.57
35085;SHT85;21267;51.032;6.998;2023-04-03T02:26:09;1.21;86.72
35085;SHT85;21267;51.032;6.998;2023-04-03T02:28:35;1.23;86.46
35085;SHT85;21267;51.032;6.998;2023-04-03T02:31:03;1.23;86.53
35085;SHT85;21267;51.032;6.998;2023-04-03T02:33:30;1.21;86.45
35085;SHT85;21267;51.032;6.998;2023-04-03T02:35:59;1.26;86.49
35085;SHT85;21267;51.032;6.998;2023-04-03T02:38:28;1.27;86.09
35085;SHT85;21267;51.032;6.998;2023-04-03T02:41:03;1.26;85.95
35085;SHT85;21267;51.032;6.998;2023-04-03T02:43:30;1.23;85.87
35085;SHT85;21267;51.032;6.998;2023-04-03T02:45:57;1.32;85.80
35085;SHT85;21267;51.032;6.998;2023-04-03T02:48:24;1.31;85.73
35085;SHT85;21267;51.032;6.998;2023-04-03T02:50:52;1.30;85.48
35085;SHT85;21267;51.032;6.998;2023-04-03T02:53:19;1.26;85.56
35085;SHT85;21267;51.032;6.998;2023-04-03T02:55:46;1.27;85.48
35085;SHT85;21267;51.032;6.998;2023-04-03T02:58:13;1.27;85.36
35085;SHT85;21267;51.032;6.998;2023-04-03T03:00:40;1.30;85.31
35085;SHT85;21267;51.032;6.998;2023-04-03T03:03:06;1.26;85.24
35085;SHT85;21267;51.032;6.998;2023-04-03T03:05:33;1.21;85.31
35085;SHT85;21267;51.032;6.998;2023-04-03T03:08:00;1.27;85.18
35085;SHT85;21267;51.032;6.998;2023-04-03T03:10:26;1.27;85.02
35085;SHT85;21267;51.032;6.998;2023-04-03T03:12:53;1.26;84.95
35085;SHT85;21267;51.032;6.998;2023-04-03T03:15:20;1.26;85.01
35085;SHT85;21267;51.032;6.998;2023-04-03T03:17:46;1.28;84.82
35085;SHT85;21267;51.032;6.998;2023-04-03T03:20:13;1.30;84.96
35085;SHT85;21267;51.032;6.998;2023-04-03T03:22:42;1.21;85.07
35085;SHT85;21267;51.032;6.998;2023-04-03T03:25:12;1.21;85.31
35085;SHT85;21267;51.032;6.998;2023-04-03T03:27:39;1.20;85.18
35085;SHT85;21267;51.032;6.998;2023-04-03T03:30:07;1.23;84.87
35085;SHT85;21267;51.032;6.998;2023-04-03T03:32:34;1.20;84.74
35085;SHT85;21267;51.032;6.998;2023-04-03T03:35:01;1.18;84.63
35085;SHT85;21267;51.032;6.998;2023-04-03T03:37:29;1.23;84.60
35085;SHT85;21267;51.032;6.998;2023-04-03T03:39:55;1.26;84.61
35085;SHT85;21267;51.032;6.998;2023-04-03T03:42:22;1.20;84.53
35085;SHT85;21267;51.032;6.998;2023-04-03T03:44:49;1.21;84.36
35085;SHT85;21267;51.032;6.998;2023-04-03T03:47:16;1.27;84.16
35085;SHT85;21267;51.032;6.998;2023-04-03T03:49:43;1.27;83.97
35085;SHT85;21267;51.032;6.998;2023-04-03T03:52:09;1.30;83.84
35085;SHT85;21267;51.032;6.998;2023-04-03T03:54:37;1.28;83.83
35085;SHT85;21267;51.032;6.998;2023-04-03T03:57:04;1.31;83.78
35085;SHT85;21267;51.032;6.998;2023-04-03T03:59:31;1.41;83.68
35085;SHT85;21267;51.032;6.998;2023-04-03T04:01:58;1.32;83.52
35085;SHT85;21267;51.032;6.998;2023-04-03T04:04:24;1.31;83.52
35085;SHT85;21267;51.032;6.998;2023-04-03T04:06:52;1.34;83.31
35085;SHT85;21267;51.032;6.998;2023-04-03T04:09:19;1.31;83.32
35085;SHT85;21267;51.032;6.998;2023-04-03T04:11:48;1.32;83.26
35085;SHT85;21267;51.032;6.998;2023-04-03T04:14:14;1.32;83.15
35085;SHT85;21267;51.032;6.998;2023-04-03T04:16:41;1.30;83.34
35085;SHT85;21267;51.032;6.998;2023-04-03T04:19:08;1.37;83.35
35085;SHT85;21267;51.032;6.998;2023-04-03T04:21:35;1.35;83.21
35085;SHT85;21267;51.032;6.998;2023-04-03T04:24:02;1.34;83.07
35085;SHT85;21267;51.032;6.998;2023-04-03T04:26:29;1.28;83.38
35085;SHT85;21267;51.032;6.998;2023-04-03T04:28:55;1.28;83.49
35085;SHT85;21267;51.032;6.998;2023-04-03T04:31:22;1.28;83.48
35085;SHT85;21267;51.032;6.998;2023-04-03T04:33:53;1.34;83.24
35085;SHT85;21267;51.032;6.998;2023-04-03T04:36:24;1.35;83.17
35085;SHT85;21267;51.032;6.998;2023-04-03T04:38:51;1.30;83.22
35085;SHT85;21267;51.032;6.998;2023-04-03T04:41:22;1.31;83.10
35085;SHT85;21267;51.032;6.998;2023-04-03T04:43:50;1.27;83.13
35085;SHT85;21267;51.032;6.998;2023-04-03T04:46:17;1.32;83.14
35085;SHT85;21267;51.032;6.998;2023-04-03T04:48:44;1.32;83.09
35085;SHT85;21267;51.032;6.998;2023-04-03T04:51:11;1.31;83.03
35085;SHT85;21267;51.032;6.998;2023-04-03T04:53:38;1.37;83.03
35085;SHT85;21267;51.032;6.998;2023-04-03T04:56:08;1.31;82.95
35085;SHT85;21267;51.032;6.998;2023-04-03T04:58:35;1.41;83.02
35085;SHT85;21267;51.032;6.998;2023-04-03T05:01:04;1.42;82.75
35085;SHT85;21267;51.032;6.998;2023-04-03T05:03:31;1.34;82.82
35085;SHT85;21267;51.032;6.998;2023-04-03T05:05:58;1.39;82.70
35085;SHT85;21267;51.032;6.998;2023-04-03T05:08:25;1.38;82.58
35085;SHT85;21267;51.032;6.998;2023-04-03T05:10:52;1.35;82.70
35085;SHT85;21267;51.032;6.998;2023-04-03T05:13:22;1.31;82.83
35085;SHT85;21267;51.032;6.998;2023-04-03T05:15:48;1.35;82.73
35085;SHT85;21267;51.032;6.998;2023-04-03T05:18:15;1.37;82.68
35085;SHT85;21267;51.032;6.998;2023-04-03T05:20:42;1.30;82.90
35085;SHT85;21267;51.032;6.998;2023-04-03T05:23:10;1.41;82.89
35085;SHT85;21267;51.032;6.998;2023-04-03T05:25:38;1.44;82.85
35085;SHT85;21267;51.032;6.998;2023-04-03T05:28:04;1.48;82.83
35085;SHT85;21267;51.032;6.998;2023-04-03T05:30:32;1.47;82.66
35085;SHT85;21267;51.032;6.998;2023-04-03T05:32:59;1.49;82.65
35085;SHT85;21267;51.032;6.998;2023-04-03T05:35:26;1.47;82.55
35085;SHT85;21267;51.032;6.998;2023-04-03T05:37:54;1.48;82.59
35085;SHT85;21267;51.032;6.998;2023-04-03T05:40:21;1.56;82.44
35085;SHT85;21267;51.032;6.998;2023-04-03T05:42:47;1.56;82.42
35085;SHT85;21267;51.032;6.998;2023-04-03T05:45:14;1.60;82.31
35085;SHT85;21267;51.032;6.998;2023-04-03T05:47:41;1.63;82.08
35085;SHT85;21267;51.032;6.998;2023-04-03T05:50:08;1.66;82.13
35085;SHT85;21267;51.032;6.998;2023-04-03T05:52:37;1.69;82.22
35085;SHT85;21267;51.032;6.998;2023-04-03T05:55:04;1.82;81.77
35085;SHT85;21267;51.032;6.998;2023-04-03T05:57:31;1.92;81.61
35085;SHT85;21267;51.032;6.998;2023-04-03T05:59:58;1.89;81.43
35085;SHT85;21267;51.032;6.998;2023-04-03T06:02:27;1.96;81.36
35085;SHT85;21267;51.032;6.998;2023-04-03T06:04:54;1.97;81.15
35085;SHT85;21267;51.032;6.998;2023-04-03T06:07:22;2.11;80.84
35085;SHT85;21267;51.032;6.998;2023-04-03T06:09:50;2.16;80.81
35085;SHT85;21267;51.032;6.998;2023-04-03T06:12:20;2.23;80.36
35085;SHT85;21267;51.032;6.998;2023-04-03T06:14:48;2.28;80.40
35085;SHT85;21267;51.032;6.998;2023-04-03T06:17:15;2.38;80.22
35085;SHT85;21267;51.032;6.998;2023-04-03T06:19:43;2.45;79.82
35085;SHT85;21267;51.032;6.998;2023-04-03T06:22:10;2.48;79.76
35085;SHT85;21267;51.032;6.998;2023-04-03T06:24:38;2.58;79.57
35085;SHT85;21267;51.032;6.998;2023-04-03T06:27:05;2.59;79.03
35085;SHT85;21267;51.032;6.998;2023-04-03T06:33:39;2.92;78.49
35085;SHT85;21267;51.032;6.998;2023-04-03T06:36:19;3.06;78.19
35085;SHT85;21267;51.032;6.998;2023-04-03T06:38:48;3.00;77.51
35085;SHT85;21267;51.032;6.998;2023-04-03T06:41:15;3.15;77.14
35085;SHT85;21267;51.032;6.998;2023-04-03T06:43:43;3.15;76.91
35085;SHT85;21267;51.032;6.998;2023-04-03T06:46:17;3.23;76.57
35085;SHT85;21267;51.032;6.998;2023-04-03T06:48:44;3.34;76.43
35085;SHT85;21267;51.032;6.998;2023-04-03T06:53:49;3.57;75.17
35085;SHT85;21267;51.032;6.998;2023-04-03T06:56:18;3.64;75.19
35085;SHT85;21267;51.032;6.998;2023-04-03T06:58:45;3.71;74.50
35085;SHT85;21267;51.032;6.998;2023-04-03T07:01:14;3.79;74.04
35085;SHT85;21267;51.032;6.998;2023-04-03T07:03:42;3.88;73.68
35085;SHT85;21267;51.032;6.998;2023-04-03T07:06:11;3.99;73.15
35085;SHT85;21267;51.032;6.998;2023-04-03T07:08:38;3.79;72.47
35085;SHT85;21267;51.032;6.998;2023-04-03T07:11:05;3.95;72.63
35085;SHT85;21267;51.032;6.998;2023-04-03T07:13:32;3.88;72.25
35085;SHT85;21267;51.032;6.998;2023-04-03T07:15:59;4.13;72.03
35085;SHT85;21267;51.032;6.998;2023-04-03T07:18:26;4.10;71.38
35085;SHT85;21267;51.032;6.998;2023-04-03T07:20:53;4.28;71.49
35085;SHT85;21267;51.032;6.998;2023-04-03T07:23:19;4.83;70.08
35085;SHT85;21267;51.032;6.998;2023-04-03T07:25:47;5.14;69.31
35085;SHT85;21267;51.032;6.998;2023-04-03T07:28:14;5.36;69.00
35085;SHT85;21267;51.032;6.998;2023-04-03T07:30:52;5.95;67.25
35085;SHT85;21267;51.032;6.998;2023-04-03T07:33:21;6.05;65.70
35085;SHT85;21267;51.032;6.998;2023-04-03T07:35:49;6.15;66.40
35085;SHT85;21267;51.032;6.998;2023-04-03T07:38:15;6.82;64.61
35085;SHT85;21267;51.032;6.998;2023-04-03T07:40:50;6.20;65.42
35085;SHT85;21267;51.032;6.998;2023-04-03T07:43:17;5.70;65.26
35085;SHT85;21267;51.032;6.998;2023-04-03T07:45:44;6.05;65.15
35085;SHT85;21267;51.032;6.998;2023-04-03T07:48:12;6.01;64.43
35085;SHT85;21267;51.032;6.998;2023-04-03T07:50:43;6.00;64.94
35085;SHT85;21267;51.032;6.998;2023-04-03T07:53:10;6.42;63.21
35085;SHT85;21267;51.032;6.998;2023-04-03T07:55:37;6.29;62.65
35085;SHT85;21267;51.032;6.998;2023-04-03T07:58:13;6.75;60.75
35085;SHT85;21267;51.032;6.998;2023-04-03T08:00:41;7.07;62.02
35085;SHT85;21267;51.032;6.998;2023-04-03T08:03:10;7.11;60.33
35085;SHT85;21267;51.032;6.998;2023-04-03T08:05:41;6.94;61.61
35085;SHT85;21267;51.032;6.998;2023-04-03T08:08:10;7.52;60.22
35085;SHT85;21267;51.032;6.998;2023-04-03T08:10:38;7.24;60.48
35085;SHT85;21267;51.032;6.998;2023-04-03T08:13:06;7.61;57.43
35085;SHT85;21267;51.032;6.998;2023-04-03T08:15:33;6.86;60.07
35085;SHT85;21267;51.032;6.998;2023-04-03T08:18:04;6.99;60.11
35085;SHT85;21267;51.032;6.998;2023-04-03T08:20:31;7.42;59.22
35085;SHT85;21267;51.032;6.998;2023-04-03T08:22:57;7.42;58.26
35085;SHT85;21267;51.032;6.998;2023-04-03T08:25:30;8.02;57.50
35085;SHT85;21267;51.032;6.998;2023-04-03T08:27:57;8.23;56.93
35085;SHT85;21267;51.032;6.998;2023-04-03T08:30:26;7.96;56.59
35085;SHT85;21267;51.032;6.998;2023-04-03T08:33:03;8.16;55.90
35085;SHT85;21267;51.032;6.998;2023-04-03T08:35:31;8.09;56.74
35085;SHT85;21267;51.032;6.998;2023-04-03T08:37:58;7.93;55.74
35085;SHT85;21267;51.032;6.998;2023-04-03T08:40:25;7.72;55.94
35085;SHT85;21267;51.032;6.998;2023-04-03T08:43:18;8.33;55.01
35085;SHT85;21267;51.032;6.998;2023-04-03T08:45:53;8.09;55.33
35085;SHT85;21267;51.032;6.998;2023-04-03T08:48:44;8.20;54.85
35085;SHT85;21267;51.032;6.998;2023-04-03T08:51:16;9.11;54.21
35085;SHT85;21267;51.032;6.998;2023-04-03T08:54:00;8.86;53.77
35085;SHT85;21267;51.032;6.998;2023-04-03T08:56:30;7.99;55.14
35085;SHT85;21267;51.032;6.998;2023-04-03T08:59:05;8.17;55.10
35085;SHT85;21267;51.032;6.998;2023-04-03T09:01:35;8.67;53.95
35085;SHT85;21267;51.032;6.998;2023-04-03T09:04:10;8.83;54.04
35085;SHT85;21267;51.032;6.998;2023-04-03T09:06:38;8.12;54.60
35085;SHT85;21267;51.032;6.998;2023-04-03T09:09:15;9.63;53.78
35085;SHT85;21267;51.032;6.998;2023-04-03T09:12:24;9.36;51.34
35085;SHT85;21267;51.032;6.998;2023-04-03T09:15:06;9.74;47.08
35085;SHT85;21267;51.032;6.998;2023-04-03T09:17:41;8.95;47.72
35085;SHT85;21267;51.032;6.998;2023-04-03T09:22:55;9.22;46.07
35085;SHT85;21267;51.032;6.998;2023-04-03T09:25:31;9.60;44.27
35085;SHT85;21267;51.032;6.998;2023-04-03T09:28:00;9.47;45.67
35085;SHT85;21267;51.032;6.998;2023-04-03T09:30:30;9.65;46.33
35085;SHT85;21267;51.032;6.998;2023-04-03T09:32:57;9.94;47.07
35085;SHT85;21267;51.032;6.998;2023-04-03T09:35:29;9.36;47.48
35085;SHT85;21267;51.032;6.998;2023-04-03T09:40:44;10.09;46.42
35085;SHT85;21267;51.032;6.998;2023-04-03T09:43:29;10.88;45.73
35085;SHT85;21267;51.032;6.998;2023-04-03T09:46:36;9.99;49.14
35085;SHT85;21267;51.032;6.998;2023-04-03T09:49:05;10.23;46.96
35085;SHT85;21267;51.032;6.998;2023-04-03T09:51:35;8.82;47.16
35085;SHT85;21267;51.032;6.998;2023-04-03T09:54:36;10.16;47.79
35085;SHT85;21267;51.032;6.998;2023-04-03T09:57:11;10.09;46.87
35085;SHT85;21267;51.032;6.998;2023-04-03T09:59:44;9.85;46.80
35085;SHT85;21267;51.032;6.998;2023-04-03T10:04:40;10.52;46.35
35085;SHT85;21267;51.032;6.998;2023-04-03T10:07:35;10.32;45.83
35085;SHT85;21267;51.032;6.998;2023-04-03T10:12:44;10.16;47.62
35085;SHT85;21267;51.032;6.998;2023-04-03T10:15:18;10.33;47.63
35085;SHT85;21267;51.032;6.998;2023-04-03T10:17:57;9.99;47.81
35085;SHT85;21267;51.032;6.998;2023-04-03T10:20:43;10.39;46.18
35085;SHT85;21267;51.032;6.998;2023-04-03T10:29:26;9.71;46.62
35085;SHT85;21267;51.032;6.998;2023-04-03T10:31:38;10.84;44.66
35085;SHT85;21267;51.032;6.998;2023-04-03T10:34:20;11.41;44.10
35085;SHT85;21267;51.032;6.998;2023-04-03T10:37:05;11.91;42.83
35085;SHT85;21267;51.032;6.998;2023-04-03T10:39:45;12.44;41.01
35085;SHT85;21267;51.032;6.998;2023-04-03T10:42:36;13.46;41.24
35085;SHT85;21267;51.032;6.998;2023-04-03T10:48:03;13.30;41.34
35085;SHT85;21267;51.032;6.998;2023-04-03T10:53:26;12.78;39.61
35085;SHT85;21267;51.032;6.998;2023-04-03T10:58:53;11.83;40.91
35085;SHT85;21267;51.032;6.998;2023-04-03T11:01:24;12.89;38.72
35085;SHT85;21267;51.032;6.998;2023-04-03T11:03:54;12.06;41.06
35085;SHT85;21267;51.032;6.998;2023-04-03T11:06:31;12.69;39.96
35085;SHT85;21267;51.032;6.998;2023-04-03T11:09:16;12.83;38.19
35085;SHT85;21267;51.032;6.998;2023-04-03T11:11:46;11.86;40.25
35085;SHT85;21267;51.032;6.998;2023-04-03T11:14:34;12.37;37.18
35085;SHT85;21267;51.032;6.998;2023-04-03T11:19:39;12.61;36.13
35085;SHT85;21267;51.032;6.998;2023-04-03T11:22:16;12.21;37.72
35085;SHT85;21267;51.032;6.998;2023-04-03T11:24:53;12.39;37.95
35085;SHT85;21267;51.032;6.998;2023-04-03T11:27:23;12.07;38.54
35085;SHT85;21267;51.032;6.998;2023-04-03T11:29:52;12.35;38.29
35085;SHT85;21267;51.032;6.998;2023-04-03T11:32:43;12.65;36.58
35085;SHT85;21267;51.032;6.998;2023-04-03T11:35:14;12.24;37.04
35085;SHT85;21267;51.032;6.998;2023-04-03T11:37:45;13.24;34.05
35085;SHT85;21267;51.032;6.998;2023-04-03T11:42:46;14.17;32.87
35085;SHT85;21267;51.032;6.998;2023-04-03T11:48:41;13.96;33.09
35085;SHT85;21267;51.032;6.998;2023-04-03T11:53:47;13.19;34.91
35085;SHT85;21267;51.032;6.998;2023-04-03T12:04:12;12.51;35.74
35085;SHT85;21267;51.032;6.998;2023-04-03T12:09:54;12.57;33.37
35085;SHT85;21267;51.032;6.998;2023-04-03T12:12:31;14.36;33.08
35085;SHT85;21267;51.032;6.998;2023-04-03T12:15:19;15.18;30.20
35085;SHT85;21267;51.032;6.998;2023-04-03T12:17:49;12.28;32.58
35085;SHT85;21267;51.032;6.998;2023-04-03T12:23:37;13.20;32.48
35085;SHT85;21267;51.032;6.998;2023-04-03T12:26:27;13.61;32.54
35085;SHT85;21267;51.032;6.998;2023-04-03T12:29:33;12.69;31.14
35085;SHT85;21267;51.032;6.998;2023-04-03T12:37:40;12.62;33.69
35085;SHT85;21267;51.032;6.998;2023-04-03T12:40:16;13.99;33.22
35085;SHT85;21267;51.032;6.998;2023-04-03T12:45:47;12.83;34.34
35085;SHT85;21267;51.032;6.998;2023-04-03T12:48:20;13.34;33.70
35085;SHT85;21267;51.032;6.998;2023-04-03T12:50:49;12.83;34.39
35085;SHT85;21267;51.032;6.998;2023-04-03T12:53:27;12.00;34.52
35085;SHT85;21267;51.032;6.998;2023-04-03T12:55:57;13.28;33.63
35085;SHT85;21267;51.032;6.998;2023-04-03T12:58:43;11.90;34.81
35085;SHT85;21267;51.032;6.998;2023-04-03T13:01:13;12.37;34.89
35085;SHT85;21267;51.032;6.998;2023-04-03T13:03:47;11.76;35.28
35085;SHT85;21267;51.032;6.998;2023-04-03T13:06:23;11.83;36.39
35085;SHT85;21267;51.032;6.998;2023-04-03T13:08:59;12.48;35.49
35085;SHT85;21267;51.032;6.998;2023-04-03T13:11:38;14.10;33.83
35085;SHT85;21267;51.032;6.998;2023-04-03T13:14:21;12.18;35.52
35085;SHT85;21267;51.032;6.998;2023-04-03T13:17:12;13.91;34.16
35085;SHT85;21267;51.032;6.998;2023-04-03T13:19:40;13.27;35.02
35085;SHT85;21267;51.032;6.998;2023-04-03T13:22:33;15.11;33.00
35085;SHT85;21267;51.032;6.998;2023-04-03T13:25:08;12.22;36.75
35085;SHT85;21267;51.032;6.998;2023-04-03T13:27:35;12.65;35.87
35085;SHT85;21267;51.032;6.998;2023-04-03T13:30:03;13.91;35.25
35085;SHT85;21267;51.032;6.998;2023-04-03T13:32:31;13.12;34.56
35085;SHT85;21267;51.032;6.998;2023-04-03T13:34:59;12.75;37.22
35085;SHT85;21267;51.032;6.998;2023-04-03T13:37:54;12.62;37.14
35085;SHT85;21267;51.032;6.998;2023-04-03T13:40:21;12.20;37.09
35085;SHT85;21267;51.032;6.998;2023-04-03T13:43:06;12.55;37.30
35085;SHT85;21267;51.032;6.998;2023-04-03T13:45:56;13.37;36.41
35085;SHT85;21267;51.032;6.998;2023-04-03T13:48:23;14.19;36.28
35085;SHT85;21267;51.032;6.998;2023-04-03T13:50:53;12.75;37.07
35085;SHT85;21267;51.032;6.998;2023-04-03T13:53:21;12.71;38.05
35085;SHT85;21267;51.032;6.998;2023-04-03T13:56:07;12.58;38.84
35085;SHT85;21267;51.032;6.998;2023-04-03T13:58:35;13.38;37.48
35085;SHT85;21267;51.032;6.998;2023-04-03T14:01:19;14.52;36.25
35085;SHT85;21267;51.032;6.998;2023-04-03T14:04:00;14.92;35.89
35085;SHT85;21267;51.032;6.998;2023-04-03T14:06:27;13.31;37.02
35085;SHT85;21267;51.032;6.998;2023-04-03T14:08:56;12.75;38.59
35085;SHT85;21267;51.032;6.998;2023-04-03T14:11:29;12.37;38.67
35085;SHT85;21267;51.032;6.998;2023-04-03T14:14:01;12.95;38.18
35085;SHT85;21267;51.032;6.998;2023-04-03T14:16:31;13.48;38.24
35085;SHT85;21267;51.032;6.998;2023-04-03T14:18:59;13.15;38.05
35085;SHT85;21267;51.032;6.998;2023-04-03T14:21:26;14.88;36.17
35085;SHT85;21267;51.032;6.998;2023-04-03T14:23:53;14.92;35.62
35085;SHT85;21267;51.032;6.998;2023-04-03T14:26:23;14.08;36.73
35085;SHT85;21267;51.032;6.998;2023-04-03T14:28:53;13.77;35.79
35085;SHT85;21267;51.032;6.998;2023-04-03T14:31:21;14.96;36.47
35085;SHT85;21267;51.032;6.998;2023-04-03T14:33:48;14.66;36.21
35085;SHT85;21267;51.032;6.998;2023-04-03T14:38:45;12.97;37.54
35085;SHT85;21267;51.032;6.998;2023-04-03T14:41:13;15.93;34.83
35085;SHT85;21267;51.032;6.998;2023-04-03T14:43:45;13.69;37.23
35085;SHT85;21267;51.032;6.998;2023-04-03T14:48:46;13.96;36.88
35085;SHT85;21267;51.032;6.998;2023-04-03T14:51:14;12.90;38.79
35085;SHT85;21267;51.032;6.998;2023-04-03T14:53:42;12.64;38.90
35085;SHT85;21267;51.032;6.998;2023-04-03T14:56:34;12.86;38.70
35085;SHT85;21267;51.032;6.998;2023-04-03T14:59:01;13.07;39.14
35085;SHT85;21267;51.032;6.998;2023-04-03T15:01:29;14.63;36.22
35085;SHT85;21267;51.032;6.998;2023-04-03T15:03:56;13.96;36.50
35085;SHT85;21267;51.032;6.998;2023-04-03T15:06:24;13.09;37.58
35085;SHT85;21267;51.032;6.998;2023-04-03T15:08:51;13.64;37.24
35085;SHT85;21267;51.032;6.998;2023-04-03T15:11:18;12.49;38.89
35085;SHT85;21267;51.032;6.998;2023-04-03T15:13:45;12.31;39.43
35085;SHT85;21267;51.032;6.998;2023-04-03T15:16:16;14.87;36.04
35085;SHT85;21267;51.032;6.998;2023-04-03T15:18:47;12.82;38.66
35085;SHT85;21267;51.032;6.998;2023-04-03T15:21:14;12.57;37.99
35085;SHT85;21267;51.032;6.998;2023-04-03T15:23:40;13.02;38.76
35085;SHT85;21267;51.032;6.998;2023-04-03T15:26:08;12.32;39.56
35085;SHT85;21267;51.032;6.998;2023-04-03T15:28:38;13.10;39.70
35085;SHT85;21267;51.032;6.998;2023-04-03T15:31:06;12.58;39.44
35085;SHT85;21267;51.032;6.998;2023-04-03T15:33:34;14.88;36.87
35085;SHT85;21267;51.032;6.998;2023-04-03T15:36:02;14.16;37.47
35085;SHT85;21267;51.032;6.998;2023-04-03T15:38:33;13.23;38.79
35085;SHT85;21267;51.032;6.998;2023-04-03T15:40:59;15.36;36.17
35085;SHT85;21267;51.032;6.998;2023-04-03T15:43:26;15.33;35.89
35085;SHT85;21267;51.032;6.998;2023-04-03T15:45:56;12.54;39.45
35085;SHT85;21267;51.032;6.998;2023-04-03T15:48:25;13.07;38.55
35085;SHT85;21267;51.032;6.998;2023-04-03T15:50:52;12.57;40.59
35085;SHT85;21267;51.032;6.998;2023-04-03T15:53:19;12.45;39.72
35085;SHT85;21267;51.032;6.998;2023-04-03T15:55:47;13.53;39.23
35085;SHT85;21267;51.032;6.998;2023-04-03T15:58:13;13.16;39.32
35085;SHT85;21267;51.032;6.998;2023-04-03T16:00:40;13.85;38.11
35085;SHT85;21267;51.032;6.998;2023-04-03T16:03:12;13.12;38.98
35085;SHT85;21267;51.032;6.998;2023-04-03T16:05:41;13.03;38.98
35085;SHT85;21267;51.032;6.998;2023-04-03T16:08:14;12.69;39.51
35085;SHT85;21267;51.032;6.998;2023-04-03T16:10:41;12.57;40.21
35085;SHT85;21267;51.032;6.998;2023-04-03T16:13:07;12.76;39.61
35085;SHT85;21267;51.032;6.998;2023-04-03T16:15:34;13.67;37.97
35085;SHT85;21267;51.032;6.998;2023-04-03T16:18:04;12.38;39.04
35085;SHT85;21267;51.032;6.998;2023-04-03T16:20:31;12.78;39.23
35085;SHT85;21267;51.032;6.998;2023-04-03T16:22:59;12.80;39.26
35085;SHT85;21267;51.032;6.998;2023-04-03T16:25:26;13.59;38.41
35085;SHT85;21267;51.032;6.998;2023-04-03T16:27:54;11.38;41.25
35085;SHT85;21267;51.032;6.998;2023-04-03T16:30:22;11.08;42.44
35085;SHT85;21267;51.032;6.998;2023-04-03T16:32:49;11.82;40.41
35085;SHT85;21267;51.032;6.998;2023-04-03T16:35:16;12.18;41.14
35085;SHT85;21267;51.032;6.998;2023-04-03T16:37:43;11.87;41.20
35085;SHT85;21267;51.032;6.998;2023-04-03T16:40:09;12.20;40.13
35085;SHT85;21267;51.032;6.998;2023-04-03T16:42:38;11.42;42.51
35085;SHT85;21267;51.032;6.998;2023-04-03T16:45:06;11.52;41.26
35085;SHT85;21267;51.032;6.998;2023-04-03T16:47:33;12.16;40.57
35085;SHT85;21267;51.032;6.998;2023-04-03T16:50:02;11.28;42.34
35085;SHT85;21267;51.032;6.998;2023-04-03T16:52:28;11.11;42.72
35085;SHT85;21267;51.032;6.998;2023-04-03T16:54:55;11.58;41.95
35085;SHT85;21267;51.032;6.998;2023-04-03T16:57:24;10.57;43.51
35085;SHT85;21267;51.032;6.998;2023-04-03T16:59:52;10.40;43.13
35085;SHT85;21267;51.032;6.998;2023-04-03T17:02:20;10.32;43.38
35085;SHT85;21267;51.032;6.998;2023-04-03T17:04:47;11.34;42.30
35085;SHT85;21267;51.032;6.998;2023-04-03T17:07:20;10.70;42.97
35085;SHT85;21267;51.032;6.998;2023-04-03T17:09:47;11.02;42.50
35085;SHT85;21267;51.032;6.998;2023-04-03T17:12:14;10.57;42.86
35085;SHT85;21267;51.032;6.998;2023-04-03T17:14:42;11.48;42.39
35085;SHT85;21267;51.032;6.998;2023-04-03T17:17:10;11.48;41.45